createdAt,value
2022-11-29T00:01:23.870Z,78.71
2022-11-29T00:03:52.177Z,78.93
2022-11-29T00:06:21.692Z,79.09
2022-11-29T00:08:49.869Z,79.96
2022-11-29T00:11:19.215Z,80.15
2022-11-29T00:13:47.133Z,80.24
2022-11-29T00:16:16.131Z,80.46
2022-11-29T00:18:44.014Z,80.91
2022-11-29T00:21:11.131Z,81.29
2022-11-29T00:23:39.298Z,81.53
2022-11-29T00:26:08.651Z,81.73
2022-11-29T00:28:37.445Z,81.93
2022-11-29T00:31:16.276Z,81.78
2022-11-29T00:33:44.133Z,81.79
2022-11-29T00:36:11.985Z,81.64
2022-11-29T00:38:41.483Z,81.42
2022-11-29T00:41:09.570Z,81.41
2022-11-29T00:43:38.579Z,81.37
2022-11-29T00:46:06.481Z,82.05
2022-11-29T00:48:36.734Z,82.25
2022-11-29T00:51:05.725Z,81.84
2022-11-29T00:53:35.061Z,81.59
2022-11-29T00:56:03.053Z,81.61
2022-11-29T00:58:31.376Z,80.96
2022-11-29T01:00:58.941Z,81.63
2022-11-29T01:03:26.806Z,81.42
2022-11-29T01:06:00.977Z,81.08
2022-11-29T01:08:29.211Z,81.57
2022-11-29T01:11:04.847Z,81.22
2022-11-29T01:13:32.952Z,81.36
2022-11-29T01:16:00.337Z,81.97
2022-11-29T01:18:28.725Z,81.14
2022-11-29T01:20:59.137Z,81.34
2022-11-29T01:23:27.281Z,81.68
2022-11-29T01:26:04.257Z,81.76
2022-11-29T01:28:33.031Z,81.37
2022-11-29T01:31:04.923Z,81.31
2022-11-29T01:33:33.170Z,81.96
2022-11-29T01:36:02.845Z,81.22
2022-11-29T01:38:31.334Z,80.90
2022-11-29T01:41:01.796Z,80.91
2022-11-29T01:43:30.371Z,81.36
2022-11-29T01:45:58.059Z,81.27
2022-11-29T01:48:30.732Z,81.23
2022-11-29T01:51:01.574Z,81.40
2022-11-29T01:53:29.577Z,81.81
2022-11-29T01:56:03.712Z,82.27
2022-11-29T01:58:32.098Z,81.86
2022-11-29T02:01:01.175Z,81.66
2022-11-29T02:03:29.210Z,81.42
2022-11-29T02:05:56.825Z,81.51
2022-11-29T02:08:31.825Z,81.13
2022-11-29T02:11:30.939Z,80.89
2022-11-29T02:14:10.855Z,81.03
2022-11-29T02:16:47.723Z,81.04
2022-11-29T02:19:35.059Z,81.10
2022-11-29T02:22:08.192Z,81.05
2022-11-29T02:25:23.249Z,80.91
2022-11-29T02:28:41.058Z,80.75
2022-11-29T02:32:00.116Z,80.96
2022-11-29T02:34:52.181Z,80.30
2022-11-29T02:37:41.953Z,80.67
2022-11-29T02:40:33.642Z,80.38
2022-11-29T02:43:43.267Z,80.53
2022-11-29T02:46:27.152Z,80.58
2022-11-29T02:49:03.781Z,80.41
2022-11-29T02:51:42.073Z,80.30
2022-11-29T02:54:16.377Z,81.23
2022-11-29T02:56:51.346Z,81.21
2022-11-29T02:59:34.093Z,80.51
2022-11-29T03:02:12.961Z,80.82
2022-11-29T03:04:47.688Z,80.64
2022-11-29T03:07:27.447Z,80.39
2022-11-29T03:10:00.955Z,80.53
2022-11-29T03:12:37.831Z,80.52
2022-11-29T03:15:19.502Z,79.82
2022-11-29T03:17:57.673Z,80.15
2022-11-29T03:20:37.718Z,80.20
2022-11-29T03:23:23.192Z,80.34
2022-11-29T03:25:57.704Z,80.60
2022-11-29T03:28:31.526Z,80.41
2022-11-29T03:31:06.964Z,80.63
2022-11-29T03:33:43.201Z,80.60
2022-11-29T03:36:18.947Z,80.66
2022-11-29T03:38:48.782Z,80.81
2022-11-29T03:41:23.117Z,80.31
2022-11-29T03:43:57.444Z,80.36
2022-11-29T03:46:32.079Z,80.23
2022-11-29T03:49:03.836Z,80.78
2022-11-29T03:51:44.554Z,80.65
2022-11-29T03:54:16.684Z,80.85
2022-11-29T03:56:45.201Z,81.65
2022-11-29T03:59:26.322Z,81.81
2022-11-29T04:02:11.034Z,81.44
2022-11-29T04:05:22.238Z,81.84
2022-11-29T04:08:13.376Z,82.45
2022-11-29T04:11:23.087Z,82.89
2022-11-29T04:14:26.674Z,83.95
2022-11-29T04:17:35.550Z,83.14
2022-11-29T04:20:41.104Z,83.44
2022-11-29T04:23:38.800Z,83.21
2022-11-29T04:26:33.545Z,82.59
2022-11-29T04:29:29.944Z,82.58
2022-11-29T04:32:20.439Z,82.34
2022-11-29T04:35:23.417Z,81.60
2022-11-29T04:38:09.770Z,81.20
2022-11-29T04:40:55.619Z,81.66
2022-11-29T04:43:47.303Z,81.64
2022-11-29T04:46:40.865Z,82.06
2022-11-29T04:49:26.069Z,82.21
2022-11-29T04:52:12.000Z,82.46
2022-11-29T04:54:46.162Z,81.64
2022-11-29T04:57:24.431Z,80.90
2022-11-29T05:00:00.306Z,81.12
2022-11-29T05:02:36.922Z,81.61
2022-11-29T05:05:18.538Z,82.24
2022-11-29T05:07:53.685Z,81.57
2022-11-29T05:10:29.168Z,82.08
2022-11-29T05:13:06.243Z,82.54
2022-11-29T05:16:12.519Z,82.34
2022-11-29T05:18:58.136Z,83.17
2022-11-29T05:21:37.280Z,82.42
2022-11-29T05:24:17.556Z,82.71
2022-11-29T05:26:53.142Z,82.46
2022-11-29T05:29:28.634Z,82.46
2022-11-29T05:32:14.231Z,82.25
2022-11-29T05:35:03.119Z,82.58
2022-11-29T05:37:44.208Z,81.84
2022-11-29T05:40:36.345Z,81.45
2022-11-29T05:43:14.978Z,81.42
2022-11-29T05:45:48.181Z,81.10
2022-11-29T05:48:26.684Z,80.96
2022-11-29T05:51:05.500Z,81.59
2022-11-29T05:53:40.929Z,81.68
2022-11-29T05:56:15.916Z,81.14
2022-11-29T05:58:50.428Z,81.71
2022-11-29T06:01:22.981Z,81.89
2022-11-29T06:04:04.434Z,81.65
2022-11-29T06:06:40.386Z,81.34
2022-11-29T06:09:15.649Z,80.84
2022-11-29T06:11:46.163Z,81.10
2022-11-29T06:14:25.215Z,81.17
2022-11-29T06:17:12.097Z,81.01
2022-11-29T06:20:07.446Z,81.20
2022-11-29T06:22:58.150Z,80.92
2022-11-29T06:25:43.554Z,80.57
2022-11-29T06:28:24.690Z,80.16
2022-11-29T06:30:58.010Z,79.40
2022-11-29T06:33:31.752Z,79.06
2022-11-29T06:36:11.991Z,79.30
2022-11-29T06:38:39.689Z,79.52
2022-11-29T06:41:16.423Z,79.07
2022-11-29T06:43:44.352Z,79.09
2022-11-29T06:46:20.940Z,79.19
2022-11-29T06:48:56.571Z,78.57
2022-11-29T06:51:36.321Z,78.82
2022-11-29T06:54:19.534Z,79.20
2022-11-29T06:56:56.276Z,79.23
2022-11-29T06:59:37.421Z,78.34
2022-11-29T07:02:24.346Z,77.79
2022-11-29T07:05:03.452Z,77.95
2022-11-29T07:07:34.253Z,78.02
2022-11-29T07:10:04.322Z,78.05
2022-11-29T07:12:32.988Z,78.02
2022-11-29T07:15:00.970Z,77.89
2022-11-29T07:17:37.440Z,77.91
2022-11-29T07:20:15.920Z,78.16
2022-11-29T07:23:01.109Z,78.18
2022-11-29T07:25:38.571Z,78.13
2022-11-29T07:28:19.337Z,78.23
2022-11-29T07:30:53.593Z,78.20
2022-11-29T07:33:31.876Z,77.42
2022-11-29T07:36:11.747Z,77.12
2022-11-29T07:38:55.999Z,77.40
2022-11-29T07:41:31.086Z,77.61
2022-11-29T07:44:08.008Z,77.33
2022-11-29T07:46:35.450Z,78.02
2022-11-29T07:49:03.141Z,77.26
2022-11-29T07:51:32.110Z,77.39
2022-11-29T07:54:01.425Z,76.83
2022-11-29T07:56:28.930Z,76.89
2022-11-29T07:58:56.699Z,76.40
2022-11-29T08:01:24.267Z,77.14
2022-11-29T08:03:52.105Z,76.48
2022-11-29T08:06:24.833Z,77.16
2022-11-29T08:08:52.766Z,77.62
2022-11-29T08:11:21.390Z,77.40
2022-11-29T08:13:49.501Z,77.74
2022-11-29T08:16:17.376Z,77.49
2022-11-29T08:18:45.395Z,77.34
2022-11-29T08:21:12.627Z,77.38
2022-11-29T08:23:40.688Z,77.20
2022-11-29T08:26:08.024Z,76.34
2022-11-29T08:28:37.198Z,77.12
2022-11-29T08:31:06.737Z,76.70
2022-11-29T08:33:35.740Z,76.17
2022-11-29T08:36:06.427Z,76.08
2022-11-29T08:38:34.513Z,76.47
2022-11-29T08:41:01.930Z,77.05
2022-11-29T08:43:29.965Z,76.30
2022-11-29T08:45:58.849Z,76.17
2022-11-29T08:48:26.922Z,77.44
2022-11-29T08:50:56.083Z,76.38
2022-11-29T08:53:24.797Z,76.63
2022-11-29T08:55:52.378Z,76.15
2022-11-29T08:58:20.255Z,75.35
2022-11-29T09:00:47.580Z,75.93
2022-11-29T09:03:17.022Z,75.84
2022-11-29T09:05:44.517Z,75.16
2022-11-29T09:08:12.570Z,75.24
2022-11-29T09:10:41.103Z,74.10
2022-11-29T09:13:10.006Z,74.80
2022-11-29T09:15:37.635Z,74.96
2022-11-29T09:18:06.016Z,74.97
2022-11-29T09:20:34.854Z,76.38
2022-11-29T09:23:03.015Z,76.28
2022-11-29T09:25:30.495Z,76.56
2022-11-29T09:27:58.798Z,75.83
2022-11-29T09:30:26.178Z,76.55
2022-11-29T09:32:54.003Z,77.56
2022-11-29T09:35:21.447Z,77.21
2022-11-29T09:37:51.496Z,76.56
2022-11-29T09:40:21.913Z,75.82
2022-11-29T09:43:00.606Z,77.18
2022-11-29T09:45:34.485Z,76.02
2022-11-29T09:48:22.309Z,76.10
2022-11-29T09:50:54.126Z,76.43
2022-11-29T09:53:38.534Z,75.99
2022-11-29T09:56:16.645Z,75.97
2022-11-29T09:58:49.642Z,76.18
2022-11-29T10:01:23.190Z,75.76
2022-11-29T10:03:54.318Z,76.66
2022-11-29T10:06:25.459Z,76.05
2022-11-29T10:08:59.508Z,76.16
2022-11-29T10:11:32.025Z,76.34
2022-11-29T10:14:06.151Z,75.52
2022-11-29T10:16:41.930Z,75.68
2022-11-29T10:19:18.929Z,74.57
2022-11-29T10:21:55.226Z,73.86
2022-11-29T10:24:27.073Z,74.06
2022-11-29T10:26:54.414Z,72.71
2022-11-29T10:29:23.527Z,72.50
2022-11-29T10:31:51.073Z,73.33
2022-11-29T10:34:21.615Z,72.69
2022-11-29T10:36:52.110Z,73.13
2022-11-29T10:39:24.618Z,71.97
2022-11-29T10:41:56.488Z,72.50
2022-11-29T10:44:25.406Z,71.77
2022-11-29T10:46:53.625Z,72.43
2022-11-29T10:49:28.081Z,71.44
2022-11-29T10:51:55.446Z,72.17
2022-11-29T10:54:37.805Z,71.77
2022-11-29T10:57:13.097Z,71.27
2022-11-29T10:59:41.557Z,71.93
2022-11-29T11:02:18.226Z,70.94
2022-11-29T11:04:47.803Z,71.90
2022-11-29T11:07:23.914Z,71.03
2022-11-29T11:09:55.581Z,71.88
2022-11-29T11:12:27.298Z,71.95
2022-11-29T11:15:14.837Z,70.89
2022-11-29T11:17:55.719Z,71.92
2022-11-29T11:20:25.267Z,70.90
2022-11-29T11:22:58.396Z,70.61
2022-11-29T11:25:28.990Z,70.31
2022-11-29T11:28:10.621Z,70.33
2022-11-29T11:30:39.053Z,70.76
2022-11-29T11:33:07.929Z,70.40
2022-11-29T11:35:36.217Z,70.55
2022-11-29T11:38:03.601Z,71.11
2022-11-29T11:40:31.824Z,69.59
2022-11-29T11:43:02.214Z,69.58
2022-11-29T11:45:35.167Z,70.22
2022-11-29T11:48:05.481Z,70.56
2022-11-29T11:50:37.639Z,68.69
2022-11-29T11:53:07.920Z,68.93
2022-11-29T11:55:39.646Z,68.35
2022-11-29T11:58:21.962Z,67.64
2022-11-29T12:01:08.651Z,68.31
2022-11-29T12:03:44.155Z,68.20
2022-11-29T12:06:27.152Z,68.99
2022-11-29T12:08:59.353Z,67.16
2022-11-29T12:11:27.423Z,68.21
2022-11-29T12:13:58.676Z,67.24
2022-11-29T12:16:31.727Z,66.30
2022-11-29T12:19:04.374Z,67.21
2022-11-29T12:21:37.561Z,65.20
2022-11-29T12:24:09.324Z,66.06
2022-11-29T12:29:30.136Z,65.09
2022-11-29T12:32:09.292Z,66.23
2022-11-29T12:34:51.286Z,65.10
2022-11-29T12:37:25.360Z,66.33
2022-11-29T12:39:59.965Z,64.58
2022-11-29T12:42:46.810Z,63.90
2022-11-29T12:45:30.084Z,62.84
2022-11-29T12:48:09.787Z,62.98
2022-11-29T12:50:45.617Z,63.34
2022-11-29T12:53:33.657Z,64.09
2022-11-29T12:56:13.902Z,63.03
2022-11-29T12:58:53.772Z,63.74
2022-11-29T13:01:30.760Z,63.64
2022-11-29T13:04:09.788Z,62.89
2022-11-29T13:06:44.803Z,62.90
2022-11-29T13:09:26.808Z,62.19
2022-11-29T13:11:58.470Z,62.58
2022-11-29T13:14:48.241Z,62.50
2022-11-29T13:17:27.974Z,62.27
2022-11-29T13:19:58.324Z,60.90
2022-11-29T13:22:32.469Z,60.26
2022-11-29T13:25:04.357Z,59.94
2022-11-29T13:27:35.483Z,60.15
2022-11-29T13:30:04.634Z,60.53
2022-11-29T13:32:35.399Z,59.82
2022-11-29T13:35:12.674Z,60.20
2022-11-29T13:37:53.514Z,59.98
2022-11-29T13:40:35.087Z,60.72
2022-11-29T13:43:12.180Z,59.92
2022-11-29T13:45:46.645Z,59.95
2022-11-29T13:48:34.251Z,60.29
2022-11-29T13:51:34.076Z,60.48
2022-11-29T13:54:03.410Z,61.22
2022-11-29T13:56:35.638Z,62.69
2022-11-29T13:59:07.982Z,61.49
2022-11-29T14:01:47.221Z,61.58
2022-11-29T14:04:37.735Z,62.67
2022-11-29T14:07:09.934Z,64.12
2022-11-29T14:09:57.082Z,64.54
2022-11-29T14:12:35.586Z,64.71
2022-11-29T14:15:15.489Z,64.74
2022-11-29T14:17:50.786Z,63.52
2022-11-29T14:20:55.808Z,63.45
2022-11-29T14:23:35.416Z,64.15
2022-11-29T14:26:28.768Z,64.02
2022-11-29T14:28:58.285Z,63.93
2022-11-29T14:31:55.020Z,64.42
2022-11-29T14:34:38.379Z,65.37
2022-11-29T14:37:35.653Z,65.70
2022-11-29T14:40:17.008Z,65.66
2022-11-29T14:42:47.449Z,65.47
2022-11-29T14:45:23.747Z,66.10
2022-11-29T14:47:51.895Z,65.94
2022-11-29T14:50:31.261Z,65.57
2022-11-29T14:53:00.095Z,64.88
2022-11-29T14:55:35.331Z,62.81
2022-11-29T14:58:16.783Z,64.43
2022-11-29T15:01:10.727Z,65.19
2022-11-29T15:03:48.540Z,66.39
2022-11-29T15:06:26.130Z,67.47
2022-11-29T15:09:04.480Z,67.63
2022-11-29T15:11:43.317Z,67.26
2022-11-29T15:14:18.969Z,66.76
2022-11-29T15:17:04.731Z,67.01
2022-11-29T15:19:57.681Z,68.88
2022-11-29T15:22:28.149Z,70.39
2022-11-29T15:25:00.548Z,70.21
2022-11-29T15:27:29.329Z,69.82
2022-11-29T15:29:56.712Z,69.45
2022-11-29T15:32:26.203Z,69.74
2022-11-29T15:34:55.268Z,69.08
2022-11-29T15:37:41.249Z,69.43
2022-11-29T15:40:15.018Z,70.35
2022-11-29T15:42:45.184Z,70.00
2022-11-29T15:45:27.339Z,70.72
2022-11-29T15:47:55.909Z,70.40
2022-11-29T15:50:25.721Z,70.49
2022-11-29T15:53:06.053Z,70.18
2022-11-29T15:55:35.407Z,69.49
2022-11-29T15:58:08.707Z,69.66
2022-11-29T16:00:36.848Z,69.27
2022-11-29T16:03:06.448Z,69.32
2022-11-29T16:05:37.002Z,69.71
2022-11-29T16:08:12.335Z,70.44
2022-11-29T16:10:44.140Z,70.39
2022-11-29T16:13:32.199Z,70.50
2022-11-29T16:16:06.083Z,70.79
2022-11-29T16:18:34.195Z,70.77
2022-11-29T16:21:03.527Z,70.95
2022-11-29T16:23:36.453Z,70.82
2022-11-29T16:26:15.087Z,71.63
2022-11-29T16:28:45.488Z,71.73
2022-11-29T16:31:18.078Z,72.09
2022-11-29T16:33:47.252Z,72.18
2022-11-29T16:36:17.855Z,71.68
2022-11-29T16:38:47.087Z,71.66
2022-11-29T16:41:25.145Z,71.51
2022-11-29T16:43:54.599Z,71.37
2022-11-29T16:46:34.431Z,71.22
2022-11-29T16:49:24.671Z,71.37
2022-11-29T16:51:53.992Z,71.10
2022-11-29T16:54:23.969Z,71.39
2022-11-29T16:56:54.424Z,71.12
2022-11-29T16:59:27.519Z,70.85
2022-11-29T17:01:56.243Z,70.38
2022-11-29T17:04:24.868Z,70.58
2022-11-29T17:06:53.910Z,70.79
2022-11-29T17:09:26.789Z,71.42
2022-11-29T17:11:56.786Z,71.36
2022-11-29T17:14:24.606Z,72.17
2022-11-29T17:16:52.106Z,72.28
2022-11-29T17:19:23.514Z,72.00
2022-11-29T17:21:51.665Z,72.69
2022-11-29T17:24:20.750Z,73.38
2022-11-29T17:26:48.123Z,73.32
2022-11-29T17:29:18.349Z,73.36
2022-11-29T17:31:46.879Z,72.66
2022-11-29T17:34:14.723Z,73.41
2022-11-29T17:36:42.605Z,73.63
2022-11-29T17:39:10.440Z,72.94
2022-11-29T17:41:37.899Z,73.17
2022-11-29T17:44:06.167Z,72.90
2022-11-29T17:46:37.136Z,73.22
2022-11-29T17:49:06.758Z,73.28
2022-11-29T17:51:52.738Z,72.86
2022-11-29T17:54:22.042Z,72.36
2022-11-29T17:56:49.753Z,72.98
2022-11-29T17:59:18.111Z,72.88
2022-11-29T18:01:47.472Z,72.44
2022-11-29T18:04:15.584Z,73.26
2022-11-29T18:06:43.074Z,72.10
2022-11-29T18:09:11.514Z,72.08
2022-11-29T18:11:48.013Z,73.33
2022-11-29T18:14:18.839Z,72.85
2022-11-29T18:16:48.048Z,72.41
2022-11-29T18:19:18.186Z,72.34
2022-11-29T18:21:45.726Z,72.62
2022-11-29T18:24:13.932Z,71.96
2022-11-29T18:26:41.720Z,72.40
2022-11-29T18:29:10.161Z,72.21
2022-11-29T18:31:39.672Z,72.25
2022-11-29T18:34:10.512Z,71.86
2022-11-29T18:36:40.155Z,72.50
2022-11-29T18:39:10.318Z,73.20
2022-11-29T18:41:38.250Z,72.54
2022-11-29T18:44:09.255Z,72.78
2022-11-29T18:46:38.410Z,71.55
2022-11-29T18:49:09.335Z,72.73
2022-11-29T18:51:38.099Z,72.17
2022-11-29T18:54:06.620Z,71.83
2022-11-29T18:56:36.374Z,71.96
2022-11-29T18:59:07.205Z,72.05
2022-11-29T19:01:35.645Z,71.71
2022-11-29T19:04:03.845Z,71.26
2022-11-29T19:06:39.331Z,71.40
2022-11-29T19:09:12.064Z,71.76
2022-11-29T19:11:39.841Z,71.50
2022-11-29T19:14:09.854Z,70.98
2022-11-29T19:16:38.225Z,70.56
2022-11-29T19:19:06.218Z,70.80
2022-11-29T19:21:35.434Z,70.70
2022-11-29T19:24:05.060Z,70.78
2022-11-29T19:26:33.075Z,70.71
2022-11-29T19:29:01.771Z,69.87
2022-11-29T19:31:29.524Z,69.72
2022-11-29T19:33:58.001Z,70.48
2022-11-29T19:36:27.240Z,70.87
2022-11-29T19:38:57.458Z,70.67
2022-11-29T19:41:27.421Z,70.67
2022-11-29T19:43:56.760Z,70.70
2022-11-29T19:46:26.123Z,71.33
2022-11-29T19:48:55.343Z,71.42
2022-11-29T19:51:23.948Z,72.16
2022-11-29T19:53:57.990Z,72.75
2022-11-29T19:56:25.615Z,72.65
2022-11-29T19:58:53.810Z,73.29
2022-11-29T20:01:22.950Z,73.35
2022-11-29T20:03:52.174Z,73.93
2022-11-29T20:06:19.774Z,74.49
2022-11-29T20:08:48.196Z,73.81
2022-11-29T20:11:19.775Z,72.96
2022-11-29T20:13:54.793Z,73.21
2022-11-29T20:16:22.469Z,73.45
2022-11-29T20:18:51.662Z,73.74
2022-11-29T20:21:20.901Z,74.53
2022-11-29T20:23:49.828Z,74.67
2022-11-29T20:26:20.249Z,74.59
2022-11-29T20:28:49.326Z,73.87
2022-11-29T20:31:19.249Z,73.26
2022-11-29T20:33:47.612Z,73.65
2022-11-29T20:36:31.858Z,73.17
2022-11-29T20:39:11.730Z,73.82
2022-11-29T20:41:48.617Z,76.05
2022-11-29T20:44:20.562Z,76.54
2022-11-29T20:46:48.261Z,76.71
2022-11-29T20:49:16.693Z,77.42
2022-11-29T20:51:51.651Z,77.50
2022-11-29T20:54:20.374Z,77.81
2022-11-29T20:56:49.288Z,77.41
2022-11-29T20:59:17.462Z,78.17
2022-11-29T21:01:45.252Z,78.75
2022-11-29T21:04:13.391Z,78.34
2022-11-29T21:06:40.927Z,78.92
2022-11-29T21:09:08.655Z,80.12
2022-11-29T21:11:36.581Z,80.84
2022-11-29T21:14:08.396Z,80.77
2022-11-29T21:16:36.192Z,81.18
2022-11-29T21:19:04.900Z,81.58
2022-11-29T21:21:40.778Z,81.39
2022-11-29T21:24:16.845Z,81.85
2022-11-29T21:26:50.915Z,82.16
2022-11-29T21:29:22.078Z,82.14
2022-11-29T21:31:51.917Z,81.94
2022-11-29T21:34:20.626Z,81.57
2022-11-29T21:36:53.300Z,81.32
2022-11-29T21:39:21.294Z,82.36
2022-11-29T21:41:48.882Z,82.23
2022-11-29T21:44:17.083Z,82.10
2022-11-29T21:46:45.876Z,82.87
2022-11-29T21:49:13.767Z,83.96
2022-11-29T21:51:41.211Z,84.28
2022-11-29T21:54:09.474Z,83.44
2022-11-29T21:56:37.090Z,82.96
2022-11-29T21:59:05.974Z,82.84
2022-11-29T22:01:33.653Z,83.08
2022-11-29T22:04:03.750Z,82.36
2022-11-29T22:06:31.837Z,82.63
2022-11-29T22:09:00.280Z,82.67
2022-11-29T22:11:27.794Z,82.95
2022-11-29T22:13:56.769Z,83.72
2022-11-29T22:16:25.078Z,84.17
2022-11-29T22:18:53.409Z,83.44
2022-11-29T22:21:22.663Z,83.26
2022-11-29T22:23:52.291Z,83.56
2022-11-29T22:26:19.929Z,83.35
2022-11-29T22:28:47.872Z,83.20
2022-11-29T22:31:15.413Z,82.91
2022-11-29T22:33:43.564Z,83.05
2022-11-29T22:36:13.290Z,83.07
2022-11-29T22:38:42.457Z,83.32
2022-11-29T22:41:11.506Z,83.35
2022-11-29T22:43:41.338Z,83.33
2022-11-29T22:46:11.403Z,83.26
2022-11-29T22:48:40.714Z,82.77
2022-11-29T22:51:09.887Z,83.17
2022-11-29T22:53:39.455Z,82.20
2022-11-29T22:56:11.354Z,82.17
2022-11-29T22:58:39.353Z,82.09
2022-11-29T23:01:09.174Z,82.41
2022-11-29T23:03:39.048Z,81.99
2022-11-29T23:06:08.240Z,81.72
2022-11-29T23:08:36.936Z,82.18
2022-11-29T23:11:06.328Z,82.24
2022-11-29T23:13:37.324Z,81.79
2022-11-29T23:16:07.194Z,81.77
2022-11-29T23:18:36.355Z,82.34
2022-11-29T23:21:05.796Z,82.45
2022-11-29T23:23:34.319Z,82.36
2022-11-29T23:26:02.558Z,82.04
2022-11-29T23:28:30.796Z,81.92
2022-11-29T23:31:00.601Z,81.78
2022-11-29T23:33:28.834Z,81.73
2022-11-29T23:36:00.212Z,81.62
2022-11-29T23:38:27.956Z,81.70
2022-11-29T23:40:55.378Z,81.51
2022-11-29T23:43:23.989Z,81.67
2022-11-29T23:45:51.466Z,82.25
2022-11-29T23:48:20.693Z,82.35
2022-11-29T23:50:47.971Z,83.16
2022-11-29T23:53:18.508Z,83.65
2022-11-29T23:55:46.003Z,84.85
2022-11-29T23:58:13.715Z,85.87
